sensor_id;sensor_type;location;lat;lon;timestamp;P1;durP1;ratioP1;P2;durP2;ratioP2
85056;SDS011;75393;49.516;8.662;2024-03-22T00:00:30;3.10;;;1.92;;
85056;SDS011;75393;49.516;8.662;2024-03-22T00:02:55;3.50;;;1.90;;
85056;SDS011;75393;49.516;8.662;2024-03-22T00:05:21;2.08;;;1.52;;
85056;SDS011;75393;49.516;8.662;2024-03-22T00:07:47;3.08;;;2.33;;
85056;SDS011;75393;49.516;8.662;2024-03-22T00:10:12;2.63;;;1.55;;
85056;SDS011;75393;49.516;8.662;2024-03-22T00:12:38;3.78;;;1.70;;
85056;SDS011;75393;49.516;8.662;2024-03-22T00:15:04;3.33;;;1.88;;
85056;SDS011;75393;49.516;8.662;2024-03-22T00:17:30;5.40;;;1.70;;
85056;SDS011;75393;49.516;8.662;2024-03-22T00:19:56;3.90;;;1.80;;
85056;SDS011;75393;49.516;8.662;2024-03-22T00:22:21;2.95;;;1.48;;
85056;SDS011;75393;49.516;8.662;2024-03-22T00:24:47;3.60;;;1.88;;
85056;SDS011;75393;49.516;8.662;2024-03-22T00:27:12;3.05;;;1.52;;
85056;SDS011;75393;49.516;8.662;2024-03-22T00:29:37;2.47;;;1.90;;
85056;SDS011;75393;49.516;8.662;2024-03-22T00:32:03;2.25;;;1.83;;
85056;SDS011;75393;49.516;8.662;2024-03-22T00:34:29;2.25;;;1.65;;
85056;SDS011;75393;49.516;8.662;2024-03-22T00:36:54;2.33;;;1.58;;
85056;SDS011;75393;49.516;8.662;2024-03-22T00:39:19;1.95;;;1.55;;
85056;SDS011;75393;49.516;8.662;2024-03-22T00:41:45;3.05;;;1.70;;
85056;SDS011;75393;49.516;8.662;2024-03-22T00:44:10;2.58;;;1.77;;
85056;SDS011;75393;49.516;8.662;2024-03-22T00:46:35;2.05;;;1.80;;
85056;SDS011;75393;49.516;8.662;2024-03-22T00:49:01;3.38;;;1.60;;
85056;SDS011;75393;49.516;8.662;2024-03-22T00:51:27;2.78;;;1.90;;
85056;SDS011;75393;49.516;8.662;2024-03-22T00:53:53;2.15;;;1.40;;
85056;SDS011;75393;49.516;8.662;2024-03-22T00:56:18;4.55;;;1.98;;
85056;SDS011;75393;49.516;8.662;2024-03-22T00:58:43;3.33;;;2.10;;
85056;SDS011;75393;49.516;8.662;2024-03-22T01:01:09;2.85;;;1.80;;
85056;SDS011;75393;49.516;8.662;2024-03-22T01:03:34;3.83;;;1.85;;
85056;SDS011;75393;49.516;8.662;2024-03-22T01:05:59;1.73;;;1.50;;
85056;SDS011;75393;49.516;8.662;2024-03-22T01:08:25;3.38;;;1.50;;
85056;SDS011;75393;49.516;8.662;2024-03-22T01:10:50;4.50;;;1.95;;
85056;SDS011;75393;49.516;8.662;2024-03-22T01:13:16;2.35;;;1.83;;
85056;SDS011;75393;49.516;8.662;2024-03-22T01:15:41;1.83;;;1.50;;
85056;SDS011;75393;49.516;8.662;2024-03-22T01:18:07;4.55;;;1.75;;
85056;SDS011;75393;49.516;8.662;2024-03-22T01:20:32;2.75;;;1.65;;
85056;SDS011;75393;49.516;8.662;2024-03-22T01:22:59;2.35;;;1.38;;
85056;SDS011;75393;49.516;8.662;2024-03-22T01:25:24;3.90;;;2.10;;
85056;SDS011;75393;49.516;8.662;2024-03-22T01:27:50;4.90;;;1.60;;
85056;SDS011;75393;49.516;8.662;2024-03-22T01:30:15;1.73;;;1.52;;
85056;SDS011;75393;49.516;8.662;2024-03-22T01:32:40;2.72;;;2.05;;
85056;SDS011;75393;49.516;8.662;2024-03-22T01:35:06;2.65;;;1.70;;
85056;SDS011;75393;49.516;8.662;2024-03-22T01:37:31;3.67;;;1.70;;
85056;SDS011;75393;49.516;8.662;2024-03-22T01:39:57;3.30;;;1.80;;
85056;SDS011;75393;49.516;8.662;2024-03-22T01:42:22;2.03;;;1.70;;
85056;SDS011;75393;49.516;8.662;2024-03-22T01:44:48;2.90;;;1.88;;
85056;SDS011;75393;49.516;8.662;2024-03-22T01:47:14;2.95;;;1.60;;
85056;SDS011;75393;49.516;8.662;2024-03-22T01:49:39;2.45;;;1.55;;
85056;SDS011;75393;49.516;8.662;2024-03-22T01:52:04;4.22;;;1.88;;
85056;SDS011;75393;49.516;8.662;2024-03-22T01:54:30;4.60;;;1.83;;
85056;SDS011;75393;49.516;8.662;2024-03-22T01:56:56;3.30;;;1.63;;
85056;SDS011;75393;49.516;8.662;2024-03-22T01:59:21;3.38;;;1.70;;
85056;SDS011;75393;49.516;8.662;2024-03-22T02:01:47;2.08;;;1.63;;
85056;SDS011;75393;49.516;8.662;2024-03-22T02:04:13;2.38;;;1.65;;
85056;SDS011;75393;49.516;8.662;2024-03-22T02:06:39;1.52;;;1.42;;
85056;SDS011;75393;49.516;8.662;2024-03-22T02:09:05;2.03;;;1.50;;
85056;SDS011;75393;49.516;8.662;2024-03-22T02:11:30;1.92;;;1.42;;
85056;SDS011;75393;49.516;8.662;2024-03-22T02:13:56;3.58;;;1.92;;
85056;SDS011;75393;49.516;8.662;2024-03-22T02:16:22;3.92;;;2.05;;
85056;SDS011;75393;49.516;8.662;2024-03-22T02:18:47;2.13;;;1.60;;
85056;SDS011;75393;49.516;8.662;2024-03-22T02:21:14;3.45;;;1.63;;
85056;SDS011;75393;49.516;8.662;2024-03-22T02:23:40;2.53;;;1.58;;
85056;SDS011;75393;49.516;8.662;2024-03-22T02:26:06;2.85;;;1.58;;
85056;SDS011;75393;49.516;8.662;2024-03-22T02:28:32;1.63;;;1.33;;
85056;SDS011;75393;49.516;8.662;2024-03-22T02:30:58;2.47;;;1.85;;
85056;SDS011;75393;49.516;8.662;2024-03-22T02:33:24;2.92;;;1.40;;
85056;SDS011;75393;49.516;8.662;2024-03-22T02:35:50;2.95;;;1.70;;
85056;SDS011;75393;49.516;8.662;2024-03-22T02:38:16;3.20;;;1.92;;
85056;SDS011;75393;49.516;8.662;2024-03-22T02:40:42;2.38;;;1.40;;
85056;SDS011;75393;49.516;8.662;2024-03-22T02:43:08;3.63;;;1.80;;
85056;SDS011;75393;49.516;8.662;2024-03-22T02:45:34;4.78;;;1.80;;
85056;SDS011;75393;49.516;8.662;2024-03-22T02:47:59;2.53;;;2.00;;
85056;SDS011;75393;49.516;8.662;2024-03-22T02:50:24;3.10;;;1.50;;
85056;SDS011;75393;49.516;8.662;2024-03-22T02:52:50;2.13;;;1.52;;
85056;SDS011;75393;49.516;8.662;2024-03-22T02:55:15;2.78;;;1.45;;
85056;SDS011;75393;49.516;8.662;2024-03-22T02:57:40;2.45;;;1.50;;
85056;SDS011;75393;49.516;8.662;2024-03-22T03:00:06;2.58;;;1.40;;
85056;SDS011;75393;49.516;8.662;2024-03-22T03:02:32;2.45;;;1.45;;
85056;SDS011;75393;49.516;8.662;2024-03-22T03:04:57;3.00;;;1.70;;
85056;SDS011;75393;49.516;8.662;2024-03-22T03:07:22;1.85;;;1.50;;
85056;SDS011;75393;49.516;8.662;2024-03-22T03:09:49;1.92;;;1.75;;
85056;SDS011;75393;49.516;8.662;2024-03-22T03:12:14;3.00;;;1.70;;
85056;SDS011;75393;49.516;8.662;2024-03-22T03:14:39;2.08;;;1.35;;
85056;SDS011;75393;49.516;8.662;2024-03-22T03:17:05;1.48;;;1.38;;
85056;SDS011;75393;49.516;8.662;2024-03-22T03:19:30;2.55;;;1.63;;
85056;SDS011;75393;49.516;8.662;2024-03-22T03:21:56;2.92;;;1.60;;
85056;SDS011;75393;49.516;8.662;2024-03-22T03:24:21;2.88;;;1.65;;
85056;SDS011;75393;49.516;8.662;2024-03-22T03:26:46;1.88;;;1.70;;
85056;SDS011;75393;49.516;8.662;2024-03-22T03:29:11;2.60;;;1.73;;
85056;SDS011;75393;49.516;8.662;2024-03-22T03:31:37;7.50;;;1.75;;
85056;SDS011;75393;49.516;8.662;2024-03-22T03:34:02;2.70;;;1.70;;
85056;SDS011;75393;49.516;8.662;2024-03-22T03:36:28;2.15;;;1.38;;
85056;SDS011;75393;49.516;8.662;2024-03-22T03:38:53;2.53;;;1.80;;
85056;SDS011;75393;49.516;8.662;2024-03-22T03:41:18;3.20;;;1.70;;
85056;SDS011;75393;49.516;8.662;2024-03-22T03:43:44;3.30;;;1.83;;
85056;SDS011;75393;49.516;8.662;2024-03-22T03:46:09;2.63;;;1.50;;
85056;SDS011;75393;49.516;8.662;2024-03-22T03:48:41;2.13;;;1.67;;
85056;SDS011;75393;49.516;8.662;2024-03-22T03:51:06;3.50;;;1.85;;
85056;SDS011;75393;49.516;8.662;2024-03-22T03:53:31;1.48;;;1.30;;
85056;SDS011;75393;49.516;8.662;2024-03-22T03:55:57;3.58;;;1.50;;
85056;SDS011;75393;49.516;8.662;2024-03-22T03:58:22;2.30;;;1.50;;
85056;SDS011;75393;49.516;8.662;2024-03-22T04:00:48;1.75;;;1.60;;
85056;SDS011;75393;49.516;8.662;2024-03-22T04:03:13;1.38;;;1.27;;
85056;SDS011;75393;49.516;8.662;2024-03-22T04:05:39;2.15;;;1.50;;
85056;SDS011;75393;49.516;8.662;2024-03-22T04:08:04;1.65;;;1.48;;
85056;SDS011;75393;49.516;8.662;2024-03-22T04:10:30;1.88;;;1.55;;
85056;SDS011;75393;49.516;8.662;2024-03-22T04:12:55;2.42;;;1.30;;
85056;SDS011;75393;49.516;8.662;2024-03-22T04:15:27;2.13;;;1.95;;
85056;SDS011;75393;49.516;8.662;2024-03-22T04:17:55;2.17;;;1.40;;
85056;SDS011;75393;49.516;8.662;2024-03-22T04:20:21;2.83;;;1.63;;
85056;SDS011;75393;49.516;8.662;2024-03-22T04:22:46;1.95;;;1.45;;
85056;SDS011;75393;49.516;8.662;2024-03-22T04:25:14;1.77;;;1.50;;
85056;SDS011;75393;49.516;8.662;2024-03-22T04:27:40;3.13;;;1.88;;
85056;SDS011;75393;49.516;8.662;2024-03-22T04:30:05;1.95;;;1.75;;
85056;SDS011;75393;49.516;8.662;2024-03-22T04:32:31;2.00;;;1.63;;
85056;SDS011;75393;49.516;8.662;2024-03-22T04:34:56;2.42;;;1.55;;
85056;SDS011;75393;49.516;8.662;2024-03-22T04:37:21;2.55;;;1.30;;
85056;SDS011;75393;49.516;8.662;2024-03-22T04:39:47;1.77;;;1.42;;
85056;SDS011;75393;49.516;8.662;2024-03-22T04:42:12;2.85;;;1.50;;
85056;SDS011;75393;49.516;8.662;2024-03-22T04:44:37;2.08;;;1.80;;
85056;SDS011;75393;49.516;8.662;2024-03-22T04:47:03;2.35;;;1.52;;
85056;SDS011;75393;49.516;8.662;2024-03-22T04:49:28;1.65;;;1.30;;
85056;SDS011;75393;49.516;8.662;2024-03-22T04:51:53;2.03;;;1.35;;
85056;SDS011;75393;49.516;8.662;2024-03-22T04:54:19;1.80;;;1.30;;
85056;SDS011;75393;49.516;8.662;2024-03-22T04:56:44;1.90;;;1.50;;
85056;SDS011;75393;49.516;8.662;2024-03-22T04:59:10;2.00;;;1.10;;
85056;SDS011;75393;49.516;8.662;2024-03-22T05:01:35;2.27;;;1.70;;
85056;SDS011;75393;49.516;8.662;2024-03-22T05:04:00;1.60;;;1.30;;
85056;SDS011;75393;49.516;8.662;2024-03-22T05:06:25;1.50;;;1.40;;
85056;SDS011;75393;49.516;8.662;2024-03-22T05:08:51;2.10;;;1.38;;
85056;SDS011;75393;49.516;8.662;2024-03-22T05:11:16;1.90;;;1.25;;
85056;SDS011;75393;49.516;8.662;2024-03-22T05:13:42;1.90;;;1.33;;
85056;SDS011;75393;49.516;8.662;2024-03-22T05:16:07;3.50;;;2.15;;
85056;SDS011;75393;49.516;8.662;2024-03-22T05:18:32;3.13;;;1.60;;
85056;SDS011;75393;49.516;8.662;2024-03-22T05:20:58;2.13;;;1.38;;
85056;SDS011;75393;49.516;8.662;2024-03-22T05:23:23;1.65;;;1.40;;
85056;SDS011;75393;49.516;8.662;2024-03-22T05:25:49;4.70;;;1.73;;
85056;SDS011;75393;49.516;8.662;2024-03-22T05:28:14;1.80;;;1.50;;
85056;SDS011;75393;49.516;8.662;2024-03-22T05:30:39;1.77;;;1.38;;
85056;SDS011;75393;49.516;8.662;2024-03-22T05:33:04;2.10;;;1.50;;
85056;SDS011;75393;49.516;8.662;2024-03-22T05:35:30;1.98;;;1.50;;
85056;SDS011;75393;49.516;8.662;2024-03-22T05:37:55;1.52;;;1.40;;
85056;SDS011;75393;49.516;8.662;2024-03-22T05:40:21;2.60;;;1.48;;
85056;SDS011;75393;49.516;8.662;2024-03-22T05:42:53;1.50;;;1.20;;
85056;SDS011;75393;49.516;8.662;2024-03-22T05:45:18;1.70;;;1.48;;
85056;SDS011;75393;49.516;8.662;2024-03-22T05:47:44;1.90;;;1.40;;
85056;SDS011;75393;49.516;8.662;2024-03-22T05:50:09;4.07;;;1.75;;
85056;SDS011;75393;49.516;8.662;2024-03-22T05:52:34;1.95;;;1.27;;
85056;SDS011;75393;49.516;8.662;2024-03-22T05:55:00;2.95;;;1.58;;
85056;SDS011;75393;49.516;8.662;2024-03-22T05:57:25;3.08;;;1.60;;
85056;SDS011;75393;49.516;8.662;2024-03-22T05:59:51;2.10;;;1.70;;
85056;SDS011;75393;49.516;8.662;2024-03-22T06:02:18;2.50;;;1.77;;
85056;SDS011;75393;49.516;8.662;2024-03-22T06:04:43;4.13;;;1.70;;
85056;SDS011;75393;49.516;8.662;2024-03-22T06:07:08;2.08;;;1.45;;
85056;SDS011;75393;49.516;8.662;2024-03-22T06:09:34;2.00;;;1.60;;
85056;SDS011;75393;49.516;8.662;2024-03-22T06:12:10;1.85;;;1.65;;
85056;SDS011;75393;49.516;8.662;2024-03-22T06:14:36;2.33;;;1.42;;
85056;SDS011;75393;49.516;8.662;2024-03-22T06:17:03;1.63;;;1.45;;
85056;SDS011;75393;49.516;8.662;2024-03-22T06:19:28;2.42;;;1.60;;
85056;SDS011;75393;49.516;8.662;2024-03-22T06:21:54;3.85;;;1.40;;
85056;SDS011;75393;49.516;8.662;2024-03-22T06:24:19;2.50;;;1.45;;
85056;SDS011;75393;49.516;8.662;2024-03-22T06:26:44;1.88;;;1.70;;
85056;SDS011;75393;49.516;8.662;2024-03-22T06:29:09;2.60;;;1.27;;
85056;SDS011;75393;49.516;8.662;2024-03-22T06:31:35;2.88;;;1.75;;
85056;SDS011;75393;49.516;8.662;2024-03-22T06:34:00;1.50;;;1.40;;
85056;SDS011;75393;49.516;8.662;2024-03-22T06:36:28;2.17;;;1.63;;
85056;SDS011;75393;49.516;8.662;2024-03-22T06:38:54;1.38;;;1.27;;
85056;SDS011;75393;49.516;8.662;2024-03-22T06:41:19;2.58;;;1.50;;
85056;SDS011;75393;49.516;8.662;2024-03-22T06:43:45;1.55;;;1.45;;
85056;SDS011;75393;49.516;8.662;2024-03-22T06:46:11;1.77;;;1.40;;
85056;SDS011;75393;49.516;8.662;2024-03-22T06:48:36;1.15;;;1.05;;
85056;SDS011;75393;49.516;8.662;2024-03-22T06:51:01;1.30;;;1.20;;
85056;SDS011;75393;49.516;8.662;2024-03-22T06:53:27;1.83;;;1.10;;
85056;SDS011;75393;49.516;8.662;2024-03-22T06:55:52;1.17;;;1.08;;
85056;SDS011;75393;49.516;8.662;2024-03-22T06:58:17;3.53;;;1.23;;
85056;SDS011;75393;49.516;8.662;2024-03-22T07:00:43;1.30;;;1.20;;
85056;SDS011;75393;49.516;8.662;2024-03-22T07:03:08;2.13;;;1.55;;
85056;SDS011;75393;49.516;8.662;2024-03-22T07:05:33;1.70;;;1.42;;
85056;SDS011;75393;49.516;8.662;2024-03-22T07:07:58;2.00;;;1.40;;
85056;SDS011;75393;49.516;8.662;2024-03-22T07:10:24;1.48;;;1.30;;
85056;SDS011;75393;49.516;8.662;2024-03-22T07:12:53;2.05;;;1.95;;
85056;SDS011;75393;49.516;8.662;2024-03-22T07:15:19;2.83;;;1.40;;
85056;SDS011;75393;49.516;8.662;2024-03-22T07:17:45;2.50;;;1.40;;
85056;SDS011;75393;49.516;8.662;2024-03-22T07:20:11;2.90;;;1.50;;
85056;SDS011;75393;49.516;8.662;2024-03-22T07:22:36;1.60;;;1.35;;
85056;SDS011;75393;49.516;8.662;2024-03-22T07:25:01;1.90;;;1.48;;
85056;SDS011;75393;49.516;8.662;2024-03-22T07:27:27;3.45;;;1.52;;
85056;SDS011;75393;49.516;8.662;2024-03-22T07:29:54;2.30;;;1.58;;
85056;SDS011;75393;49.516;8.662;2024-03-22T07:32:20;2.45;;;1.38;;
85056;SDS011;75393;49.516;8.662;2024-03-22T07:34:48;6.57;;;2.30;;
85056;SDS011;75393;49.516;8.662;2024-03-22T07:37:13;11.43;;;3.50;;
85056;SDS011;75393;49.516;8.662;2024-03-22T07:39:38;15.80;;;3.88;;
85056;SDS011;75393;49.516;8.662;2024-03-22T07:42:04;18.88;;;4.65;;
85056;SDS011;75393;49.516;8.662;2024-03-22T07:44:29;12.07;;;3.05;;
85056;SDS011;75393;49.516;8.662;2024-03-22T07:46:55;8.85;;;2.83;;
85056;SDS011;75393;49.516;8.662;2024-03-22T07:49:20;11.05;;;3.30;;
85056;SDS011;75393;49.516;8.662;2024-03-22T07:51:45;6.22;;;2.78;;
85056;SDS011;75393;49.516;8.662;2024-03-22T07:54:11;9.07;;;2.75;;
85056;SDS011;75393;49.516;8.662;2024-03-22T07:56:36;6.03;;;2.58;;
85056;SDS011;75393;49.516;8.662;2024-03-22T07:59:02;9.93;;;3.33;;
85056;SDS011;75393;49.516;8.662;2024-03-22T08:01:27;7.60;;;2.35;;
85056;SDS011;75393;49.516;8.662;2024-03-22T08:03:52;7.50;;;3.20;;
85056;SDS011;75393;49.516;8.662;2024-03-22T08:06:18;9.23;;;3.28;;
85056;SDS011;75393;49.516;8.662;2024-03-22T08:08:43;6.00;;;2.50;;
85056;SDS011;75393;49.516;8.662;2024-03-22T08:11:09;8.05;;;3.28;;
85056;SDS011;75393;49.516;8.662;2024-03-22T08:13:34;6.90;;;2.83;;
85056;SDS011;75393;49.516;8.662;2024-03-22T08:16:00;8.43;;;2.92;;
85056;SDS011;75393;49.516;8.662;2024-03-22T08:18:25;9.70;;;3.63;;
85056;SDS011;75393;49.516;8.662;2024-03-22T08:20:50;6.97;;;2.70;;
85056;SDS011;75393;49.516;8.662;2024-03-22T08:23:16;8.45;;;3.13;;
85056;SDS011;75393;49.516;8.662;2024-03-22T08:25:43;8.50;;;3.05;;
85056;SDS011;75393;49.516;8.662;2024-03-22T08:28:08;12.02;;;3.28;;
85056;SDS011;75393;49.516;8.662;2024-03-22T08:30:36;11.40;;;3.53;;
85056;SDS011;75393;49.516;8.662;2024-03-22T08:33:02;8.52;;;3.00;;
85056;SDS011;75393;49.516;8.662;2024-03-22T08:35:29;6.40;;;2.95;;
85056;SDS011;75393;49.516;8.662;2024-03-22T08:37:54;8.15;;;2.75;;
85056;SDS011;75393;49.516;8.662;2024-03-22T08:40:19;11.20;;;3.17;;
85056;SDS011;75393;49.516;8.662;2024-03-22T08:42:45;8.23;;;2.47;;
85056;SDS011;75393;49.516;8.662;2024-03-22T08:45:10;7.45;;;3.28;;
85056;SDS011;75393;49.516;8.662;2024-03-22T08:47:35;7.90;;;2.60;;
85056;SDS011;75393;49.516;8.662;2024-03-22T08:50:01;5.85;;;2.80;;
85056;SDS011;75393;49.516;8.662;2024-03-22T08:52:26;7.10;;;2.55;;
85056;SDS011;75393;49.516;8.662;2024-03-22T08:54:52;6.28;;;2.60;;
85056;SDS011;75393;49.516;8.662;2024-03-22T08:57:17;6.70;;;3.30;;
85056;SDS011;75393;49.516;8.662;2024-03-22T08:59:43;5.93;;;2.75;;
85056;SDS011;75393;49.516;8.662;2024-03-22T09:02:09;6.13;;;3.17;;
85056;SDS011;75393;49.516;8.662;2024-03-22T09:04:34;11.82;;;3.33;;
85056;SDS011;75393;49.516;8.662;2024-03-22T09:06:59;6.80;;;3.20;;
85056;SDS011;75393;49.516;8.662;2024-03-22T09:09:25;15.52;;;3.60;;
85056;SDS011;75393;49.516;8.662;2024-03-22T09:11:50;6.35;;;2.67;;
85056;SDS011;75393;49.516;8.662;2024-03-22T09:14:15;11.77;;;2.92;;
85056;SDS011;75393;49.516;8.662;2024-03-22T09:16:42;8.80;;;2.90;;
85056;SDS011;75393;49.516;8.662;2024-03-22T09:19:07;7.35;;;2.50;;
85056;SDS011;75393;49.516;8.662;2024-03-22T09:21:33;7.43;;;2.53;;
85056;SDS011;75393;49.516;8.662;2024-03-22T09:23:58;11.93;;;3.47;;
85056;SDS011;75393;49.516;8.662;2024-03-22T09:26:23;4.78;;;2.40;;
85056;SDS011;75393;49.516;8.662;2024-03-22T09:28:48;7.68;;;2.42;;
85056;SDS011;75393;49.516;8.662;2024-03-22T09:31:15;9.45;;;2.80;;
85056;SDS011;75393;49.516;8.662;2024-03-22T09:33:41;8.10;;;2.95;;
85056;SDS011;75393;49.516;8.662;2024-03-22T09:36:07;6.97;;;3.08;;
85056;SDS011;75393;49.516;8.662;2024-03-22T09:38:33;15.27;;;2.88;;
85056;SDS011;75393;49.516;8.662;2024-03-22T09:40:58;11.38;;;2.90;;
85056;SDS011;75393;49.516;8.662;2024-03-22T09:43:23;8.73;;;2.60;;
85056;SDS011;75393;49.516;8.662;2024-03-22T09:45:52;9.75;;;3.20;;
85056;SDS011;75393;49.516;8.662;2024-03-22T09:48:18;11.10;;;3.10;;
85056;SDS011;75393;49.516;8.662;2024-03-22T09:50:44;6.65;;;2.88;;
85056;SDS011;75393;49.516;8.662;2024-03-22T09:53:11;10.45;;;3.10;;
85056;SDS011;75393;49.516;8.662;2024-03-22T09:55:37;11.43;;;3.03;;
85056;SDS011;75393;49.516;8.662;2024-03-22T09:58:04;5.78;;;2.63;;
85056;SDS011;75393;49.516;8.662;2024-03-22T10:00:30;6.63;;;3.08;;
85056;SDS011;75393;49.516;8.662;2024-03-22T10:02:56;7.45;;;2.95;;
85056;SDS011;75393;49.516;8.662;2024-03-22T10:05:22;5.95;;;2.13;;
85056;SDS011;75393;49.516;8.662;2024-03-22T10:07:47;10.32;;;3.40;;
85056;SDS011;75393;49.516;8.662;2024-03-22T10:10:12;8.32;;;2.72;;
85056;SDS011;75393;49.516;8.662;2024-03-22T10:12:39;5.28;;;2.47;;
85056;SDS011;75393;49.516;8.662;2024-03-22T10:15:04;7.82;;;2.60;;
85056;SDS011;75393;49.516;8.662;2024-03-22T10:17:31;7.70;;;2.95;;
85056;SDS011;75393;49.516;8.662;2024-03-22T10:19:56;7.07;;;2.55;;
85056;SDS011;75393;49.516;8.662;2024-03-22T10:22:21;6.85;;;2.78;;
85056;SDS011;75393;49.516;8.662;2024-03-22T10:24:47;4.55;;;2.15;;
85056;SDS011;75393;49.516;8.662;2024-03-22T10:27:12;5.57;;;2.60;;
85056;SDS011;75393;49.516;8.662;2024-03-22T10:29:38;5.65;;;2.25;;
85056;SDS011;75393;49.516;8.662;2024-03-22T10:32:04;8.30;;;2.70;;
85056;SDS011;75393;49.516;8.662;2024-03-22T10:34:30;7.25;;;2.40;;
85056;SDS011;75393;49.516;8.662;2024-03-22T10:36:56;6.47;;;2.85;;
85056;SDS011;75393;49.516;8.662;2024-03-22T10:39:23;6.95;;;2.92;;
85056;SDS011;75393;49.516;8.662;2024-03-22T10:41:48;7.40;;;2.30;;
85056;SDS011;75393;49.516;8.662;2024-03-22T10:44:16;5.35;;;2.20;;
85056;SDS011;75393;49.516;8.662;2024-03-22T10:46:49;5.68;;;2.25;;
85056;SDS011;75393;49.516;8.662;2024-03-22T10:49:17;5.55;;;2.25;;
85056;SDS011;75393;49.516;8.662;2024-03-22T10:51:44;5.72;;;2.78;;
85056;SDS011;75393;49.516;8.662;2024-03-22T10:54:13;6.13;;;2.75;;
85056;SDS011;75393;49.516;8.662;2024-03-22T10:56:41;9.05;;;2.70;;
85056;SDS011;75393;49.516;8.662;2024-03-22T10:59:08;8.32;;;2.70;;
85056;SDS011;75393;49.516;8.662;2024-03-22T11:01:33;5.40;;;2.42;;
85056;SDS011;75393;49.516;8.662;2024-03-22T11:04:05;4.28;;;2.33;;
85056;SDS011;75393;49.516;8.662;2024-03-22T11:06:37;6.35;;;2.33;;
85056;SDS011;75393;49.516;8.662;2024-03-22T11:09:02;8.07;;;2.47;;
85056;SDS011;75393;49.516;8.662;2024-03-22T11:11:31;6.82;;;2.42;;
85056;SDS011;75393;49.516;8.662;2024-03-22T11:14:02;5.68;;;2.20;;
85056;SDS011;75393;49.516;8.662;2024-03-22T11:16:27;5.47;;;2.45;;
85056;SDS011;75393;49.516;8.662;2024-03-22T11:18:53;4.35;;;2.25;;
85056;SDS011;75393;49.516;8.662;2024-03-22T11:21:19;10.70;;;3.03;;
85056;SDS011;75393;49.516;8.662;2024-03-22T11:23:45;8.75;;;2.10;;
85056;SDS011;75393;49.516;8.662;2024-03-22T11:26:11;9.35;;;2.40;;
85056;SDS011;75393;49.516;8.662;2024-03-22T11:28:43;6.47;;;2.42;;
85056;SDS011;75393;49.516;8.662;2024-03-22T11:31:09;8.10;;;2.40;;
85056;SDS011;75393;49.516;8.662;2024-03-22T11:33:34;4.32;;;2.50;;
85056;SDS011;75393;49.516;8.662;2024-03-22T11:36:01;6.15;;;2.53;;
85056;SDS011;75393;49.516;8.662;2024-03-22T11:38:27;4.68;;;2.15;;
85056;SDS011;75393;49.516;8.662;2024-03-22T11:40:52;4.32;;;2.42;;
85056;SDS011;75393;49.516;8.662;2024-03-22T11:43:19;7.10;;;2.28;;
85056;SDS011;75393;49.516;8.662;2024-03-22T11:45:44;3.70;;;2.05;;
85056;SDS011;75393;49.516;8.662;2024-03-22T11:48:10;6.28;;;2.63;;
85056;SDS011;75393;49.516;8.662;2024-03-22T11:50:38;6.45;;;3.17;;
85056;SDS011;75393;49.516;8.662;2024-03-22T11:53:07;5.55;;;2.42;;
85056;SDS011;75393;49.516;8.662;2024-03-22T11:55:32;4.35;;;1.90;;
85056;SDS011;75393;49.516;8.662;2024-03-22T11:57:58;5.35;;;2.53;;
85056;SDS011;75393;49.516;8.662;2024-03-22T12:00:23;6.47;;;2.63;;
85056;SDS011;75393;49.516;8.662;2024-03-22T12:02:50;4.57;;;2.20;;
85056;SDS011;75393;49.516;8.662;2024-03-22T12:05:17;6.57;;;2.25;;
85056;SDS011;75393;49.516;8.662;2024-03-22T12:07:42;4.30;;;2.15;;
85056;SDS011;75393;49.516;8.662;2024-03-22T12:10:09;3.60;;;1.98;;
85056;SDS011;75393;49.516;8.662;2024-03-22T12:12:34;4.07;;;2.15;;
85056;SDS011;75393;49.516;8.662;2024-03-22T12:15:00;4.72;;;2.40;;
85056;SDS011;75393;49.516;8.662;2024-03-22T12:17:25;7.15;;;2.38;;
85056;SDS011;75393;49.516;8.662;2024-03-22T12:19:50;4.40;;;1.98;;
85056;SDS011;75393;49.516;8.662;2024-03-22T12:22:16;4.10;;;2.45;;
85056;SDS011;75393;49.516;8.662;2024-03-22T12:24:42;7.30;;;2.20;;
85056;SDS011;75393;49.516;8.662;2024-03-22T12:27:07;4.32;;;2.30;;
85056;SDS011;75393;49.516;8.662;2024-03-22T12:29:33;7.68;;;2.58;;
85056;SDS011;75393;49.516;8.662;2024-03-22T12:31:58;3.83;;;1.92;;
85056;SDS011;75393;49.516;8.662;2024-03-22T12:34:26;9.50;;;2.10;;
85056;SDS011;75393;49.516;8.662;2024-03-22T12:36:52;9.75;;;2.15;;
85056;SDS011;75393;49.516;8.662;2024-03-22T12:39:17;6.82;;;2.70;;
85056;SDS011;75393;49.516;8.662;2024-03-22T12:41:43;7.07;;;2.15;;
85056;SDS011;75393;49.516;8.662;2024-03-22T12:44:08;8.30;;;2.08;;
85056;SDS011;75393;49.516;8.662;2024-03-22T12:46:34;5.70;;;2.40;;
85056;SDS011;75393;49.516;8.662;2024-03-22T12:48:59;5.72;;;2.42;;
85056;SDS011;75393;49.516;8.662;2024-03-22T12:51:24;6.20;;;2.58;;
85056;SDS011;75393;49.516;8.662;2024-03-22T12:53:50;11.30;;;2.15;;
85056;SDS011;75393;49.516;8.662;2024-03-22T12:56:16;6.45;;;2.30;;
85056;SDS011;75393;49.516;8.662;2024-03-22T12:58:41;5.78;;;1.90;;
85056;SDS011;75393;49.516;8.662;2024-03-22T13:01:06;6.88;;;2.70;;
85056;SDS011;75393;49.516;8.662;2024-03-22T13:03:33;4.78;;;2.08;;
85056;SDS011;75393;49.516;8.662;2024-03-22T13:05:58;6.10;;;1.90;;
85056;SDS011;75393;49.516;8.662;2024-03-22T13:08:24;6.00;;;2.10;;
85056;SDS011;75393;49.516;8.662;2024-03-22T13:10:49;4.70;;;1.85;;
85056;SDS011;75393;49.516;8.662;2024-03-22T13:13:14;6.57;;;2.08;;
85056;SDS011;75393;49.516;8.662;2024-03-22T13:15:41;4.55;;;2.00;;
85056;SDS011;75393;49.516;8.662;2024-03-22T13:18:07;5.20;;;2.25;;
85056;SDS011;75393;49.516;8.662;2024-03-22T13:20:34;4.25;;;1.98;;
85056;SDS011;75393;49.516;8.662;2024-03-22T13:23:00;4.85;;;2.03;;
85056;SDS011;75393;49.516;8.662;2024-03-22T13:25:26;4.57;;;1.95;;
85056;SDS011;75393;49.516;8.662;2024-03-22T13:27:51;5.28;;;2.38;;
85056;SDS011;75393;49.516;8.662;2024-03-22T13:30:17;6.28;;;2.40;;
85056;SDS011;75393;49.516;8.662;2024-03-22T13:32:42;3.67;;;2.00;;
85056;SDS011;75393;49.516;8.662;2024-03-22T13:35:07;9.63;;;2.72;;
85056;SDS011;75393;49.516;8.662;2024-03-22T13:37:33;4.93;;;1.73;;
85056;SDS011;75393;49.516;8.662;2024-03-22T13:39:59;5.40;;;1.98;;
85056;SDS011;75393;49.516;8.662;2024-03-22T13:42:25;6.50;;;2.00;;
85056;SDS011;75393;49.516;8.662;2024-03-22T13:44:51;4.60;;;1.98;;
85056;SDS011;75393;49.516;8.662;2024-03-22T13:47:16;4.32;;;2.00;;
85056;SDS011;75393;49.516;8.662;2024-03-22T13:49:42;8.65;;;2.47;;
85056;SDS011;75393;49.516;8.662;2024-03-22T13:52:08;5.55;;;2.55;;
85056;SDS011;75393;49.516;8.662;2024-03-22T13:54:34;4.57;;;2.10;;
85056;SDS011;75393;49.516;8.662;2024-03-22T13:56:59;9.73;;;2.47;;
85056;SDS011;75393;49.516;8.662;2024-03-22T13:59:25;3.90;;;1.83;;
85056;SDS011;75393;49.516;8.662;2024-03-22T14:01:51;6.18;;;2.10;;
85056;SDS011;75393;49.516;8.662;2024-03-22T14:04:17;3.17;;;1.73;;
85056;SDS011;75393;49.516;8.662;2024-03-22T14:06:44;4.22;;;1.88;;
85056;SDS011;75393;49.516;8.662;2024-03-22T14:09:10;5.80;;;1.92;;
85056;SDS011;75393;49.516;8.662;2024-03-22T14:11:38;3.63;;;1.67;;
85056;SDS011;75393;49.516;8.662;2024-03-22T14:14:03;5.90;;;2.15;;
85056;SDS011;75393;49.516;8.662;2024-03-22T14:16:29;3.47;;;1.63;;
85056;SDS011;75393;49.516;8.662;2024-03-22T14:18:55;4.78;;;2.00;;
85056;SDS011;75393;49.516;8.662;2024-03-22T14:21:20;4.68;;;1.83;;
85056;SDS011;75393;49.516;8.662;2024-03-22T14:23:46;3.08;;;1.73;;
85056;SDS011;75393;49.516;8.662;2024-03-22T14:26:12;4.15;;;1.60;;
85056;SDS011;75393;49.516;8.662;2024-03-22T14:28:44;4.35;;;1.63;;
85056;SDS011;75393;49.516;8.662;2024-03-22T14:31:12;3.50;;;1.98;;
85056;SDS011;75393;49.516;8.662;2024-03-22T14:33:37;4.38;;;1.58;;
85056;SDS011;75393;49.516;8.662;2024-03-22T14:36:03;4.50;;;2.20;;
85056;SDS011;75393;49.516;8.662;2024-03-22T14:38:29;5.85;;;1.65;;